METAR Data
IDs: Format: Raw Decoded Include TAF

Data at: 2104 UTC 02 Aug 2021

KCID 022052Z 02006KT 10SM SCT070 26/08 A3013 RMK AO2 SLP199 T02610083 56014